Time;durP1;ratioP1;P1;durP2;ratioP2;P2;SDS_P1;SDS_P2;PMS_P1;PMS_P2;Temp;Humidity;BMP_temperature;BMP_pressure;BME280_temperature;BME280_humidity;BME280_pressure;Samples;Min_cycle;Max_cycle;Signal;HPM_P1;HPM_P2
2021/11/16 00:01:11;;;;;;;105.45;51.42;;;;;;;5.47;85.67;101736.38;1774004;80;21062;-80
2021/11/16 00:03:37;;;;;;;105.37;52.80;;;;;;;5.47;85.64;101733.73;1774198;80;21000;-80
2021/11/16 00:06:03;;;;;;;107.22;50.50;;;;;;;5.37;85.61;101704.89;1773531;80;21101;-80
2021/11/16 00:08:29;;;;;;;115.30;54.15;;;;;;;5.46;85.63;101724.09;1764286;80;21078;-80
2021/11/16 00:10:55;;;;;;;108.75;51.48;;;;;;;5.47;85.61;101731.55;1745355;80;21047;-80
2021/11/16 00:13:21;;;;;;;120.62;53.05;;;;;;;5.47;85.61;101727.59;1756055;80;21501;-80
2021/11/16 00:15:47;;;;;;;116.90;53.40;;;;;;;5.47;85.61;101719.65;1763631;80;21081;-80
2021/11/16 00:18:14;;;;;;;115.60;53.08;;;;;;;5.47;85.60;101722.30;1752585;80;21598;-80
2021/11/16 00:20:45;;;;;;;108.78;50.70;;;;;;;5.47;85.59;101720.50;1773188;80;21043;-80
2021/11/16 00:23:19;;;;;;;112.85;51.13;;;;;;;5.47;85.59;101713.89;1773263;80;21497;-80
2021/11/16 00:25:48;;;;;;;110.70;49.42;;;;;;;5.47;85.58;101715.21;1751560;80;21003;-80
2021/11/16 00:28:14;;;;;;;106.67;50.67;;;;;;;5.46;85.56;101720.12;1764052;80;21019;-80
2021/11/16 00:30:40;;;;;;;106.05;48.63;;;;;;;5.46;85.55;101718.80;1760358;80;21008;-80
2021/11/16 00:33:07;;;;;;;114.67;55.23;;;;;;;5.46;85.53;101724.56;1773831;80;21051;-80
2021/11/16 00:35:37;;;;;;;106.87;49.85;;;;;;;5.46;85.54;101721.91;1761887;80;21048;-80
2021/11/16 00:38:01;;;;;;;114.80;50.48;;;;;;;5.46;85.53;101720.59;1755540;81;21023;-80
2021/11/16 00:40:27;;;;;;;116.47;52.75;;;;;;;5.46;85.50;101717.47;1760472;80;20923;-80
2021/11/16 00:42:55;;;;;;;109.57;52.40;;;;;;;5.48;85.52;101710.77;1743303;82;20991;-80
2021/11/16 00:45:21;;;;;;;111.55;51.15;;;;;;;5.48;85.51;101708.98;1743392;82;21023;-80
2021/11/16 00:47:47;;;;;;;104.75;50.98;;;;;;;5.49;85.52;101709.33;1743118;81;21004;-80
2021/11/16 00:50:15;;;;;;;113.70;49.50;;;;;;;5.49;85.50;101703.19;1743116;82;21038;-80
2021/11/16 00:52:41;;;;;;;110.55;50.65;;;;;;;5.48;85.48;101702.36;1745104;80;21066;-80
2021/11/16 00:55:08;;;;;;;117.45;54.10;;;;;;;5.47;85.48;101701.98;1773881;80;20999;-80
2021/11/16 00:57:34;;;;;;;106.40;50.35;;;;;;;5.46;85.46;101702.92;1773790;80;21035;-80
2021/11/16 01:00:00;;;;;;;103.27;50.05;;;;;;;5.47;85.47;101696.69;1755911;80;21116;-80
2021/11/16 01:02:26;;;;;;;104.53;49.88;;;;;;;5.48;85.48;101706.33;1748226;80;21060;-80
2021/11/16 01:04:52;;;;;;;117.05;53.38;;;;;;;5.47;85.46;101704.63;1756196;80;20923;-80
2021/11/16 01:07:19;;;;;;;118.10;54.23;;;;;;;5.47;85.46;101703.77;1743872;80;21062;-80
2021/11/16 01:09:45;;;;;;;118.10;52.58;;;;;;;5.46;85.46;101701.60;1743254;82;21551;-80
2021/11/16 01:12:12;;;;;;;118.40;53.98;;;;;;;5.45;85.43;101700.41;1742750;82;21084;-80
2021/11/16 01:14:39;;;;;;;114.45;54.40;;;;;;;5.44;85.43;101696.91;1742813;82;21023;-80
2021/11/16 01:17:05;;;;;;;110.40;50.75;;;;;;;5.45;85.43;101696.44;1743259;82;20987;-80
2021/11/16 01:19:31;;;;;;;108.95;52.40;;;;;;;5.44;85.43;101699.55;1743352;82;20987;-80
2021/11/16 01:21:57;;;;;;;118.30;55.85;;;;;;;5.43;85.40;101700.97;1743288;82;21051;-80
2021/11/16 01:24:23;;;;;;;113.75;54.20;;;;;;;5.43;85.43;101697.00;1743153;82;21143;-80
2021/11/16 01:26:50;;;;;;;119.20;54.30;;;;;;;5.45;85.44;101697.25;1743179;82;21058;-80
2021/11/16 01:29:19;;;;;;;109.03;48.28;;;;;;;5.46;85.42;101697.63;1743053;82;21536;-80
2021/11/16 01:31:45;;;;;;;115.85;51.02;;;;;;;5.43;85.39;101699.17;1727282;83;21050;-80
2021/11/16 01:34:11;;;;;;;109.17;50.70;;;;;;;5.39;85.38;101700.33;1739860;82;21019;-80
2021/11/16 01:36:38;;;;;;;111.45;52.23;;;;;;;5.37;85.39;101702.72;1739860;81;21702;-80
2021/11/16 01:39:05;;;;;;;120.30;55.48;;;;;;;5.34;85.38;101698.48;1739652;82;21011;-80
2021/11/16 01:41:31;;;;;;;111.70;50.38;;;;;;;5.32;85.36;101696.41;1727069;83;21501;-80
2021/11/16 01:44:00;;;;;;;115.42;52.58;;;;;;;5.32;85.36;101703.02;1752111;81;20995;-80
2021/11/16 01:46:26;;;;;;;115.45;54.38;;;;;;;5.31;85.38;101702.64;1760615;81;21015;-80
2021/11/16 01:48:54;;;;;;;123.47;54.15;;;;;;;5.31;85.37;101703.96;1756977;81;22021;-80
2021/11/16 01:51:23;;;;;;;116.25;54.18;;;;;;;5.30;85.38;101700.97;1757216;81;21054;-80
2021/11/16 01:53:52;;;;;;;120.33;53.70;;;;;;;5.29;85.38;101697.94;1757337;81;21092;-80
2021/11/16 01:56:19;;;;;;;116.30;52.30;;;;;;;5.31;85.36;101694.70;1757637;81;21036;-80
2021/11/16 01:58:45;;;;;;;115.40;53.50;;;;;;;5.30;85.37;101700.97;1757360;81;21007;-80
2021/11/16 02:01:11;;;;;;;114.88;53.85;;;;;;;5.29;85.39;101705.88;1757393;81;21145;-80
2021/11/16 02:03:37;;;;;;;114.22;54.08;;;;;;;5.29;85.38;101700.59;1757398;81;21031;-80
2021/11/16 02:06:25;;;;;;;120.85;55.83;;;;;;;5.32;85.41;101693.77;1757143;81;21863;-80
2021/11/16 02:08:53;;;;;;;112.80;52.50;;;;;;;5.35;85.40;101694.02;1757579;81;21473;-80
2021/11/16 02:11:20;;;;;;;120.05;54.75;;;;;;;5.32;85.41;101688.47;1759419;80;21063;-80
2021/11/16 02:13:46;;;;;;;125.12;56.10;;;;;;;5.34;85.42;101694.52;1760819;80;21122;-81
2021/11/16 02:16:13;;;;;;;114.10;54.53;;;;;;;5.35;85.42;101684.29;1757038;81;20986;-81
2021/11/16 02:18:39;;;;;;;120.70;55.83;;;;;;;5.37;85.44;101682.41;1757457;81;21077;-81
2021/11/16 02:21:05;;;;;;;117.10;53.70;;;;;;;5.37;85.42;101682.41;1757266;81;20992;-80
2021/11/16 02:23:33;;;;;;;121.47;56.55;;;;;;;5.35;85.42;101680.80;1757148;81;21077;-80
2021/11/16 02:25:59;;;;;;;115.80;56.73;;;;;;;5.30;85.40;101681.60;1757168;81;21071;-80
2021/11/16 02:28:26;;;;;;;111.35;53.30;;;;;;;5.29;85.42;101683.39;1756659;80;21510;-80
2021/11/16 02:30:54;;;;;;;113.47;53.83;;;;;;;5.29;85.43;101683.39;1757408;81;21046;-80
2021/11/16 02:33:20;;;;;;;117.60;55.23;;;;;;;5.27;85.44;101687.95;1757394;81;20995;-80
2021/11/16 02:35:46;;;;;;;123.97;58.35;;;;;;;5.26;85.45;101684.93;1757479;81;21534;-80
2021/11/16 02:38:13;;;;;;;118.87;56.48;;;;;;;5.25;85.47;101692.48;1716571;83;21794;-80
2021/11/16 02:40:39;;;;;;;120.87;56.13;;;;;;;5.24;85.47;101686.81;1781055;80;21050;-80
2021/11/16 02:43:05;;;;;;;121.15;57.20;;;;;;;5.24;85.44;101689.45;1780995;80;21003;-80
2021/11/16 02:45:31;;;;;;;116.67;54.77;;;;;;;5.24;85.44;101683.35;1748917;82;21023;-80
2021/11/16 02:47:57;;;;;;;113.37;54.88;;;;;;;5.20;85.42;101682.72;1769867;80;21515;-80
2021/11/16 02:50:24;;;;;;;121.22;57.60;;;;;;;5.22;85.45;101681.27;1757125;81;21272;-80
2021/11/16 02:52:50;;;;;;;115.95;54.20;;;;;;;5.24;85.46;101691.28;1757277;80;21021;-80
2021/11/16 02:55:17;;;;;;;113.35;53.28;;;;;;;5.23;85.48;101674.56;1757232;81;20988;-80
2021/11/16 02:57:44;;;;;;;121.30;55.40;;;;;;;5.21;85.45;101671.16;1757038;81;21079;-80
2021/11/16 03:00:14;;;;;;;114.72;52.67;;;;;;;5.20;85.45;101670.81;1757020;81;21481;-80
2021/11/16 03:02:45;;;;;;;109.80;53.50;;;;;;;5.18;85.45;101668.73;1757070;81;21040;-80
2021/11/16 03:05:11;;;;;;;115.32;54.95;;;;;;;5.18;85.46;101666.09;1757194;81;21552;-80
2021/11/16 03:07:44;;;;;;;117.65;53.87;;;;;;;5.18;85.46;101662.12;1757376;81;21533;-80
2021/11/16 03:10:08;;;;;;;112.83;54.27;;;;;;;5.16;85.48;101657.42;1757488;81;21040;-80
2021/11/16 03:12:34;;;;;;;108.80;52.43;;;;;;;5.16;85.49;101656.10;1773344;80;21076;-80
2021/11/16 03:15:01;;;;;;;114.35;52.65;;;;;;;5.15;85.49;101658.84;1783474;80;21133;-80
2021/11/16 03:17:27;;;;;;;117.10;54.58;;;;;;;5.12;85.50;101661.22;1766600;80;21031;-80
2021/11/16 03:19:53;;;;;;;118.97;53.90;;;;;;;5.10;85.49;101658.32;1757438;81;21057;-80
2021/11/16 03:22:23;;;;;;;118.10;54.98;;;;;;;5.08;85.49;101662.38;1757501;81;21035;-80
2021/11/16 03:24:48;;;;;;;124.72;55.85;;;;;;;5.06;85.48;101658.16;1759287;80;21059;-80
2021/11/16 03:27:15;;;;;;;119.95;54.65;;;;;;;5.01;85.50;101656.66;1757327;81;21122;-80
2021/11/16 03:29:48;;;;;;;113.55;52.33;;;;;;;5.01;85.50;101658.45;1756922;81;21004;-80
2021/11/16 03:32:16;;;;;;;120.90;56.42;;;;;;;4.98;85.52;101659.52;1757284;81;21103;-80
2021/11/16 03:34:46;;;;;;;126.50;55.60;;;;;;;4.99;85.50;101656.40;1769929;80;20994;-80
2021/11/16 03:37:14;;;;;;;119.28;54.27;;;;;;;4.99;85.51;101659.05;1788206;80;21082;-80
2021/11/16 03:39:40;;;;;;;116.42;53.45;;;;;;;4.96;85.51;101659.25;1788478;80;21575;-80
2021/11/16 03:42:07;;;;;;;115.70;53.20;;;;;;;4.95;85.53;101657.08;1788201;80;21523;-80
2021/11/16 03:44:33;;;;;;;117.10;52.35;;;;;;;4.92;85.52;101649.83;1788622;80;21070;-80
2021/11/16 03:47:01;;;;;;;118.35;53.98;;;;;;;4.91;85.54;101646.81;1788304;80;21019;-80
2021/11/16 03:49:27;;;;;;;123.70;55.20;;;;;;;4.90;85.53;101650.39;1787881;80;20975;-80
2021/11/16 03:51:54;;;;;;;118.75;52.90;;;;;;;4.90;85.56;101650.39;1788426;80;22013;-80
2021/11/16 03:54:20;;;;;;;125.90;54.38;;;;;;;4.91;85.56;101654.73;1788177;80;21022;-80
2021/11/16 03:56:47;;;;;;;116.82;53.45;;;;;;;4.89;85.57;101654.83;1788146;80;21086;-80
2021/11/16 03:59:13;;;;;;;117.50;51.83;;;;;;;4.88;85.59;101657.59;1788130;80;21602;-81
2021/11/16 04:01:39;;;;;;;121.02;52.08;;;;;;;4.85;85.60;101667.05;1788501;80;21035;-80
2021/11/16 04:04:05;;;;;;;118.95;54.40;;;;;;;4.79;85.60;101661.68;1788105;80;21130;-80
2021/11/16 04:06:32;;;;;;;117.10;53.78;;;;;;;4.76;85.61;101662.36;1788286;80;21015;-80
2021/11/16 04:08:58;;;;;;;120.42;53.52;;;;;;;4.73;85.63;101661.24;1788043;80;20998;-80
2021/11/16 04:11:27;;;;;;;125.92;55.60;;;;;;;4.72;85.66;101655.11;1772740;80;21113;-80
2021/11/16 04:13:53;;;;;;;132.73;57.93;;;;;;;4.72;85.81;101655.11;1757511;81;21034;-80
2021/11/16 04:16:21;;;;;;;123.85;53.42;;;;;;;4.72;85.81;101655.11;1757131;81;21070;-80
2021/11/16 04:18:48;;;;;;;129.53;56.95;;;;;;;4.71;85.72;101649.94;1757113;81;21486;-80
2021/11/16 04:21:14;;;;;;;124.00;53.87;;;;;;;4.73;85.72;101650.67;1757143;81;21010;-80
2021/11/16 04:23:41;;;;;;;126.58;53.02;;;;;;;4.74;85.76;101651.06;1757104;81;21565;-80
2021/11/16 04:26:09;;;;;;;120.10;54.80;;;;;;;4.74;85.76;101651.06;1756691;81;21058;-80
2021/11/16 04:28:35;;;;;;;124.78;53.87;;;;;;;4.75;85.79;101654.08;1756976;81;21202;-80
2021/11/16 04:31:01;;;;;;;128.68;54.18;;;;;;;4.77;85.80;101654.81;1756994;81;21078;-80
2021/11/16 04:33:27;;;;;;;123.55;53.92;;;;;;;4.77;85.81;101655.66;1757074;81;21050;-80
2021/11/16 04:35:54;;;;;;;125.45;53.75;;;;;;;4.78;85.83;101656.52;1779704;80;20987;-80
2021/11/16 04:38:20;;;;;;;127.32;59.08;;;;;;;4.77;85.84;101649.06;1757129;81;21008;-80
2021/11/16 04:40:51;;;;;;;139.65;59.30;;;;;;;4.76;85.87;101642.54;1757048;81;21134;-80
2021/11/16 04:43:26;;;;;;;126.18;53.87;;;;;;;4.78;85.89;101632.73;1757177;81;21540;-80
2021/11/16 04:45:48;;;;;;;136.82;59.18;;;;;;;4.78;85.90;101630.09;1756063;81;21063;-80
2021/11/16 04:48:30;;;;;;;132.82;58.73;;;;;;;4.76;85.93;101631.97;1757208;80;20999;-80
2021/11/16 05:04:04;;;;;;;126.85;57.27;;;;;;;4.81;86.06;101632.52;1717763;81;20976;-80
2021/11/16 05:06:30;;;;;;;125.05;55.05;;;;;;;4.80;86.08;101631.67;1758540;81;21118;-80
2021/11/16 05:08:56;;;;;;;126.35;55.80;;;;;;;4.81;86.09;101628.09;1758388;80;21051;-80
2021/11/16 05:11:25;;;;;;;126.97;53.60;;;;;;;4.80;86.11;101628.17;1758189;80;21276;-80
2021/11/16 05:13:52;;;;;;;121.67;53.95;;;;;;;4.77;86.11;101626.59;1724594;83;21003;-80
2021/11/16 05:16:21;;;;;;;127.35;54.75;;;;;;;4.75;86.12;101625.02;1724567;83;21018;-80
2021/11/16 05:18:47;;;;;;;131.70;53.50;;;;;;;4.74;86.14;101623.31;1724556;83;21153;-81
2021/11/16 05:21:14;;;;;;;128.27;54.70;;;;;;;4.74;86.15;101629.92;1724607;83;21003;-80
2021/11/16 05:23:46;;;;;;;125.72;55.63;;;;;;;4.72;86.17;101623.87;1724806;83;21055;-80
2021/11/16 05:26:10;;;;;;;;;;;;;;;4.71;86.17;101634.09;1724929;83;21019;-80
2021/11/16 05:28:36;;;;;;;134.15;55.80;;;;;;;4.70;86.19;101628.42;1724626;83;20156;-80
2021/11/16 05:31:02;;;;;;;143.70;57.95;;;;;;;4.69;86.20;101628.89;1724019;83;21148;-80
2021/11/16 05:33:28;;;;;;;132.82;55.45;;;;;;;4.68;86.21;101626.37;1760000;81;21067;-80
2021/11/16 05:36:01;;;;;;;143.43;57.38;;;;;;;4.69;86.23;101626.25;1724809;83;21050;-82
2021/11/16 05:38:37;;;;;;;131.78;54.18;;;;;;;4.68;86.25;101621.09;1720822;82;21023;-80
2021/11/16 05:41:03;;;;;;;133.43;54.95;;;;;;;4.69;86.25;101614.83;1758090;81;21631;-80
2021/11/16 05:43:29;;;;;;;125.58;54.27;;;;;;;4.69;86.26;101610.41;1751553;81;21130;-80
2021/11/16 05:45:57;;;;;;;131.57;55.90;;;;;;;4.69;86.28;101605.58;1736197;82;21101;-81
2021/11/16 05:48:24;;;;;;;127.45;52.93;;;;;;;4.68;86.31;101606.56;1732424;81;21038;-79
2021/11/16 05:50:50;;;;;;;129.82;52.95;;;;;;;4.66;86.30;101603.16;1757117;81;21536;-79
2021/11/16 05:53:17;;;;;;;135.20;55.43;;;;;;;4.66;86.32;101608.44;1757356;80;21091;-79
2021/11/16 05:55:44;;;;;;;138.90;55.43;;;;;;;4.65;86.34;101597.48;1756805;80;21090;-80
2021/11/16 05:58:18;;;;;;;139.00;55.60;;;;;;;4.66;86.37;101604.47;1757200;80;21501;-80
2021/11/16 06:00:44;;;;;;;139.03;56.28;;;;;;;4.66;86.40;101601.83;1756801;80;21571;-80
2021/11/16 06:03:10;;;;;;;128.20;51.18;;;;;;;4.66;86.40;101604.47;1757058;80;21121;-79
2021/11/16 06:05:37;;;;;;;121.67;51.33;;;;;;;4.66;86.42;101604.47;1758102;80;21016;-79
2021/11/16 06:08:04;;;;;;;123.38;50.60;;;;;;;4.66;86.45;101601.83;1780086;80;21644;-80
2021/11/16 06:10:30;;;;;;;132.27;51.20;;;;;;;4.65;86.45;101600.98;1787211;80;21015;-79
2021/11/16 06:12:56;;;;;;;120.37;50.30;;;;;;;4.64;86.46;101598.46;1728203;81;21420;-79
2021/11/16 06:15:22;;;;;;;117.57;49.60;;;;;;;4.63;86.47;101599.40;1751821;80;21087;-79
2021/11/16 06:17:48;;;;;;;117.55;49.15;;;;;;;4.64;86.49;101603.75;1753570;80;21606;-79
2021/11/16 06:20:21;;;;;;;123.82;51.75;;;;;;;4.65;86.51;101608.05;1771281;80;21882;-80
2021/11/16 06:22:47;;;;;;;119.93;50.55;;;;;;;4.65;86.53;101608.05;1759049;80;21696;-79
2021/11/16 06:25:14;;;;;;;109.40;45.73;;;;;;;4.66;86.55;101629.57;1788500;80;21042;-79
2021/11/16 06:27:41;;;;;;;126.10;51.20;;;;;;;4.68;86.55;101623.73;1787854;80;20987;-79
2021/11/16 06:30:08;;;;;;;124.45;51.25;;;;;;;4.68;86.55;101623.73;1766328;80;21042;-80
2021/11/16 06:32:34;;;;;;;137.22;54.00;;;;;;;4.68;86.58;101619.27;1758929;80;21157;-79
2021/11/16 06:35:00;;;;;;;122.78;51.42;;;;;;;4.68;86.60;101624.55;1770200;80;20998;-79
2021/11/16 06:37:26;;;;;;;130.87;52.85;;;;;;;4.68;86.62;101619.77;1787386;80;21016;-79
2021/11/16 06:39:52;;;;;;;123.47;53.90;;;;;;;4.68;86.64;101623.73;1786533;80;21082;-80
2021/11/16 06:42:18;;;;;;;136.43;55.55;;;;;;;4.68;86.65;101631.66;1765871;80;21036;-79
2021/11/16 06:44:44;;;;;;;114.28;47.35;;;;;;;4.70;86.67;101621.81;1757186;81;21824;-79
2021/11/16 06:47:13;;;;;;;118.65;47.48;;;;;;;4.71;86.69;101612.95;1756929;81;21024;-80
2021/11/16 06:49:45;;;;;;;124.18;49.90;;;;;;;4.68;86.69;101619.27;1761997;81;21024;-79
2021/11/16 06:52:09;;;;;;;113.95;46.40;;;;;;;4.67;86.72;101622.03;1764378;81;21095;-80
2021/11/16 06:54:36;;;;;;;125.58;47.55;;;;;;;4.69;86.75;101615.69;1764669;81;21023;-80
2021/11/16 06:57:02;;;;;;;117.62;46.48;;;;;;;4.70;86.77;101620.50;1764753;81;22067;-79
2021/11/16 06:59:29;;;;;;;116.65;45.85;;;;;;;4.71;86.78;101612.95;1764995;81;21011;-79
2021/11/16 07:01:55;;;;;;;110.52;46.65;;;;;;;4.72;86.77;101610.66;1765076;81;21079;-79
2021/11/16 07:04:21;;;;;;;101.15;43.73;;;;;;;4.72;86.81;101610.19;1782785;78;21471;-79
2021/11/16 07:06:51;;;;;;;106.25;43.33;;;;;;;4.72;86.80;101611.98;1785388;79;21468;-79
2021/11/16 07:09:19;;;;;;;113.15;46.13;;;;;;;4.72;86.83;101619.91;1786984;79;21064;-79
2021/11/16 07:11:53;;;;;;;113.40;46.83;;;;;;;4.74;86.85;101616.70;1789267;79;21050;-79
2021/11/16 07:14:24;;;;;;;112.12;43.92;;;;;;;4.77;86.85;101615.17;1785273;80;21038;-79
2021/11/16 07:17:00;;;;;;;104.03;43.45;;;;;;;4.78;86.86;101620.37;1787854;79;21054;-79
2021/11/16 07:19:34;;;;;;;104.25;45.20;;;;;;;4.80;86.88;101621.57;1777464;78;21018;-80
2021/11/16 07:22:04;;;;;;;111.10;45.88;;;;;;;4.79;86.87;101618.55;1733642;82;21244;-80
2021/11/16 07:24:31;;;;;;;121.72;47.23;;;;;;;4.80;86.89;101612.33;1750705;81;20947;-80
2021/11/16 07:27:06;;;;;;;119.62;48.95;;;;;;;4.81;86.89;101610.06;1756878;81;21050;-79
2021/11/16 07:29:40;;;;;;;122.65;47.03;;;;;;;4.83;86.90;101610.79;1756789;81;21132;-79
2021/11/16 07:32:08;;;;;;;118.37;46.95;;;;;;;4.84;86.89;101608.53;1757419;81;21038;-80
2021/11/16 07:34:35;;;;;;;120.80;45.90;;;;;;;4.85;86.92;101604.95;1756718;81;21164;-80
2021/11/16 07:37:07;;;;;;;123.75;48.58;;;;;;;4.83;86.91;101596.25;1734013;82;21467;-79
2021/11/16 07:39:52;;;;;;;127.72;49.50;;;;;;;4.80;86.92;101599.11;1770043;80;21019;-80
2021/11/16 08:55:29;;;;;;;127.02;46.80;;;;;;;5.31;87.05;101579.66;1710444;81;20984;-75
2021/11/16 08:57:57;;;;;;;127.50;48.95;;;;;;;5.39;87.06;101589.23;1717977;82;21192;-75
2021/11/16 09:00:28;;;;;;;106.40;42.15;;;;;;;5.42;87.07;101587.69;1723497;82;21001;-75
2021/11/16 09:03:16;;;;;;;119.93;49.85;;;;;;;5.44;87.05;101581.83;1702030;82;21051;-76
2021/11/16 09:05:47;;;;;;;107.32;42.48;;;;;;;5.47;87.04;101573.67;1698729;82;21105;-76
2021/11/16 09:08:33;;;;;;;112.37;43.10;;;;;;;5.54;87.06;101567.00;1706802;82;21523;-77
2021/11/16 09:11:05;;;;;;;104.27;43.52;;;;;;;5.56;87.06;101578.77;1714022;82;20999;-77
2021/11/16 09:13:32;;;;;;;108.85;42.17;;;;;;;5.61;87.07;101562.58;1703862;82;21473;-76
2021/11/16 09:16:10;;;;;;;103.72;43.50;;;;;;;5.61;87.04;101569.20;1717644;82;21018;-76
2021/11/16 09:18:45;;;;;;;101.97;41.60;;;;;;;5.60;87.00;101570.14;1711184;82;21070;-76
2021/11/16 09:21:17;;;;;;;114.12;43.98;;;;;;;5.56;86.98;101572.66;1706692;82;21085;-76
2021/11/16 09:24:01;;;;;;;94.35;40.70;;;;;;;5.59;86.98;101572.45;1721018;82;21070;-76
2021/11/16 09:26:47;;;;;;;102.17;41.70;;;;;;;5.66;86.99;101575.87;1720940;82;21569;-76
2021/11/16 09:29:16;;;;;;;107.15;46.15;;;;;;;5.73;86.97;101573.16;1715641;82;21128;-76
2021/11/16 09:31:50;;;;;;;104.70;45.73;;;;;;;5.74;86.97;101569.53;1719446;82;21071;-76
2021/11/16 09:34:21;;;;;;;108.67;46.08;;;;;;;5.69;86.92;101566.86;1711054;82;21567;-76
2021/11/16 09:36:55;;;;;;;104.80;43.98;;;;;;;5.62;86.90;101566.45;1719406;82;21925;-78
2021/11/16 09:39:37;;;;;;;117.05;47.73;;;;;;;5.63;86.90;101562.02;1708612;82;21009;-76
2021/11/16 09:42:06;;;;;;;117.50;47.65;;;;;;;5.59;86.86;101553.92;1706223;82;21086;-76
2021/11/16 09:44:45;;;;;;;108.80;43.42;;;;;;;5.62;86.86;101549.73;1701797;82;21041;-76
2021/11/16 09:47:23;;;;;;;102.62;41.75;;;;;;;5.64;86.85;101546.48;1708590;82;21058;-76
2021/11/16 09:49:54;;;;;;;106.25;44.70;;;;;;;5.67;86.84;101538.31;1710253;82;21163;-75
2021/11/16 09:52:30;;;;;;;120.05;48.73;;;;;;;5.69;86.81;101535.95;1720451;82;21003;-77
2021/11/16 09:55:13;;;;;;;122.02;52.70;;;;;;;5.73;86.80;101529.95;1710064;81;21038;-76
2021/11/16 09:57:51;;;;;;;111.00;44.85;;;;;;;5.75;86.77;101522.73;1697634;83;21067;-76
2021/11/16 10:00:25;;;;;;;126.15;49.18;;;;;;;5.80;86.77;101517.97;1675864;84;21138;-76
2021/11/16 10:03:05;;;;;;;107.43;43.08;;;;;;;5.81;86.73;101524.93;1689423;84;21140;-76
2021/11/16 10:05:39;;;;;;;113.37;47.83;;;;;;;5.79;86.71;101528.19;1704996;83;21023;-76
2021/11/16 10:08:06;;;;;;;109.52;46.40;;;;;;;5.79;86.70;101514.95;1685906;84;21046;-75
2021/11/16 10:10:38;;;;;;;119.00;49.88;;;;;;;5.80;86.69;101510.03;1701980;83;21057;-76
2021/11/16 10:13:17;;;;;;;114.28;48.90;;;;;;;5.83;86.69;101511.13;1689634;83;21015;-75
2021/11/16 10:15:47;;;;;;;107.95;43.28;;;;;;;5.92;86.69;101509.14;1695389;83;21148;-75
2021/11/16 10:18:14;;;;;;;115.70;46.53;;;;;;;5.97;86.65;101496.42;1681528;83;21033;-75
2021/11/16 10:20:43;;;;;;;107.47;44.27;;;;;;;5.99;86.64;101494.50;1697119;83;21060;-76
2021/11/16 10:23:11;;;;;;;98.87;41.08;;;;;;;6.01;86.65;101485.50;1703277;83;21018;-76
2021/11/16 10:25:43;;;;;;;101.27;43.02;;;;;;;6.06;86.61;101485.14;1693504;83;21051;-76
2021/11/16 10:28:11;;;;;;;121.60;59.23;;;;;;;6.12;86.62;101479.41;1682854;85;21579;-76
2021/11/16 10:30:39;;;;;;;102.32;45.30;;;;;;;6.17;86.60;101478.56;1680496;83;21668;-75
2021/11/16 10:33:23;;;;;;;105.22;46.25;;;;;;;6.20;86.57;101482.30;1680458;84;21108;-76
2021/11/16 10:36:03;;;;;;;140.57;53.23;;;;;;;6.23;86.56;101478.09;1682010;85;21082;-76
2021/11/16 10:38:35;;;;;;;104.15;43.73;;;;;;;6.22;86.52;101476.43;1686412;85;21129;-76
2021/11/16 10:41:05;;;;;;;102.50;42.30;;;;;;;6.26;86.49;101467.27;1684025;85;21232;-76
2021/11/16 10:43:46;;;;;;;171.53;61.73;;;;;;;6.33;86.48;101463.19;1687872;83;28310;-76
2021/11/16 10:46:12;;;;;;;116.42;45.35;;;;;;;6.31;86.41;101465.13;1680716;84;21049;-77
2021/11/16 10:48:38;;;;;;;95.92;40.88;;;;;;;6.33;86.39;101464.52;1678455;83;21046;-77
2021/11/16 10:51:07;;;;;;;115.32;48.02;;;;;;;6.35;86.37;101453.81;1675719;84;21087;-77
2021/11/16 10:53:34;;;;;;;103.35;43.05;;;;;;;6.39;86.36;101459.25;1673868;84;21163;-75
2021/11/16 10:56:02;;;;;;;107.65;47.13;;;;;;;6.41;86.31;101446.23;1684380;83;21036;-76
2021/11/16 10:58:39;;;;;;;98.70;43.68;;;;;;;6.42;86.27;101439.98;1685237;83;21060;-76
2021/11/16 11:01:12;;;;;;;103.67;45.12;;;;;;;6.45;86.22;101437.09;1685679;85;21045;-77
2021/11/16 11:03:54;;;;;;;92.45;42.45;;;;;;;6.46;86.18;101438.80;1678671;85;21164;-76
2021/11/16 11:06:34;;;;;;;115.57;48.45;;;;;;;6.52;86.15;101442.77;1656526;86;21130;-76
2021/11/16 11:09:02;;;;;;;103.92;45.55;;;;;;;6.61;86.12;101444.72;1656696;86;21090;-76
2021/11/16 11:11:38;;;;;;;95.67;43.05;;;;;;;6.67;86.05;101439.41;1656646;86;21060;-76
2021/11/16 11:14:16;;;;;;;90.70;41.95;;;;;;;6.73;86.05;101430.98;1656151;86;21560;-76
2021/11/16 11:16:51;;;;;;;110.15;51.60;;;;;;;6.72;85.98;101430.64;1674624;85;21572;-76
2021/11/16 11:19:19;;;;;;;127.10;50.17;;;;;;;6.73;85.91;101429.65;1667198;85;21289;-76
2021/11/16 11:21:59;;;;;;;89.50;42.62;;;;;;;6.70;85.88;101427.24;1685540;83;21553;-76
2021/11/16 11:24:44;;;;;;;;;;;;;;;6.68;85.83;101426.53;1669664;85;21123;-76
2021/11/16 11:27:18;;;;;;;96.32;42.30;;;;;;;6.73;85.79;101421.70;1690238;83;20164;-74
2021/11/16 11:29:45;;;;;;;101.00;46.40;;;;;;;6.83;85.75;101413.37;1732451;81;21047;-74
2021/11/16 11:32:18;;;;;;;92.55;43.50;;;;;;;6.96;85.70;101412.80;1683395;83;21251;-76
2021/11/16 11:35:03;;;;;;;89.20;40.90;;;;;;;7.04;85.68;101410.35;1681257;83;21091;-76
2021/11/16 11:37:40;;;;;;;87.82;42.43;;;;;;;7.00;85.60;101404.96;1687931;83;21009;-75
2021/11/16 11:40:18;;;;;;;94.32;43.17;;;;;;;7.03;85.58;101403.38;1714445;83;21096;-75
2021/11/16 11:42:51;;;;;;;94.85;42.62;;;;;;;7.08;85.53;101397.21;1714489;83;21611;-75
2021/11/16 11:45:21;;;;;;;96.22;43.45;;;;;;;7.05;85.47;101392.16;1695416;83;21874;-75
2021/11/16 11:47:55;;;;;;;92.88;41.75;;;;;;;7.00;85.41;101387.72;1680012;85;21063;-75
2021/11/16 11:50:43;;;;;;;87.75;42.20;;;;;;;6.98;85.39;101389.16;1657281;83;21032;-75
2021/11/16 11:53:23;;;;;;;91.45;43.45;;;;;;;6.93;85.34;101382.55;1656414;85;21060;-75
2021/11/16 11:56:07;;;;;;;;;;;;;;;6.87;85.27;101381.69;1689628;84;20987;-75
2021/11/16 11:58:39;;;;;;;87.57;40.98;;;;;;;6.87;85.25;101379.03;1693961;83;21188;-75
2021/11/16 12:01:10;;;;;;;143.87;90.55;;;;;;;6.84;85.19;101377.48;1697301;84;21015;-75
2021/11/16 12:03:39;;;;;;;392.37;233.95;;;;;;;6.85;85.15;101371.22;1697352;84;21024;-75
2021/11/16 12:06:06;;;;;;;436.55;272.37;;;;;;;6.89;85.11;101365.19;1689740;83;21017;-75
2021/11/16 12:08:32;;;;;;;385.98;237.55;;;;;;;6.88;85.07;101370.97;1681759;85;21554;-75
2021/11/16 12:10:58;;;;;;;631.33;443.87;;;;;;;6.93;85.02;101365.31;1681957;84;22073;-75
2021/11/16 12:13:26;;;;;;;254.95;138.60;;;;;;;6.95;84.98;101368.19;1681290;84;21091;-75
2021/11/16 12:16:10;;;;;;;105.05;53.58;;;;;;;7.01;84.96;101368.17;1681717;84;21060;-75
2021/11/16 12:18:43;;;;;;;97.37;49.40;;;;;;;7.02;84.90;101359.26;1681046;84;21111;-75
2021/11/16 12:21:30;;;;;;;114.32;56.28;;;;;;;7.06;84.89;101364.68;1681622;84;21578;-75
2021/11/16 12:23:59;;;;;;;116.35;58.80;;;;;;;7.06;84.85;101364.68;1681672;85;21175;-76
2021/11/16 12:26:27;;;;;;;145.10;76.62;;;;;;;7.02;84.79;101363.23;1681558;84;21587;-76
2021/11/16 12:28:53;;;;;;;111.37;58.00;;;;;;;6.99;84.78;101359.03;1681659;84;21081;-76
2021/11/16 12:31:26;;;;;;;110.12;51.77;;;;;;;6.98;84.71;101352.51;1681301;84;21067;-76
2021/11/16 12:33:53;;;;;;;93.62;47.85;;;;;;;7.03;84.71;101360.95;1681394;83;21038;-76
2021/11/16 12:36:36;;;;;;;96.78;48.92;;;;;;;7.05;84.66;101349.72;1681524;84;21779;-75
2021/11/16 12:41:40;;;;;;;88.05;47.27;;;;;;;7.30;84.64;101344.11;1608342;86;21482;-75
2021/11/16 12:44:17;;;;;;;100.78;48.23;;;;;;;7.42;84.61;101344.41;1610070;87;21060;-75
2021/11/16 12:46:44;;;;;;;96.25;49.25;;;;;;;7.50;84.58;101341.98;1625051;88;21530;-75
2021/11/16 12:49:18;;;;;;;93.22;50.03;;;;;;;7.47;84.50;101343.56;1627330;88;21086;-75
2021/11/16 12:51:55;;;;;;;135.75;56.37;;;;;;;7.42;84.41;101343.60;1599276;88;21514;-75